createdAt,value
2023-04-25T00:00:28.251Z,777.00
2023-04-25T00:01:28.334Z,784.00
2023-04-25T00:02:28.470Z,786.00
2023-04-25T00:03:28.567Z,772.00
2023-04-25T00:04:28.668Z,778.00
2023-04-25T00:05:28.524Z,807.00
2023-04-25T00:06:28.597Z,833.00
2023-04-25T00:07:28.642Z,844.00
2023-04-25T00:08:28.680Z,855.00
2023-04-25T00:09:28.749Z,841.00
2023-04-25T00:10:28.810Z,861.00
2023-04-25T00:11:28.830Z,861.00
2023-04-25T00:12:28.926Z,860.00
2023-04-25T00:13:28.957Z,868.00
2023-04-25T00:14:29.034Z,860.00
2023-04-25T00:15:29.058Z,872.00
2023-04-25T00:16:29.201Z,866.00
2023-04-25T00:17:29.214Z,873.00
2023-04-25T00:18:29.234Z,868.00
2023-04-25T00:19:29.395Z,848.00
2023-04-25T00:20:29.348Z,895.00
2023-04-25T00:21:29.425Z,902.00
2023-04-25T00:22:29.464Z,967.00
2023-04-25T00:23:29.544Z,966.00
2023-04-25T00:24:29.584Z,915.00
2023-04-25T00:25:29.625Z,950.00
2023-04-25T00:26:29.682Z,938.00
2023-04-25T00:27:29.770Z,938.00
2023-04-25T00:28:29.795Z,923.00
2023-04-25T00:29:29.909Z,943.00
2023-04-25T00:30:29.938Z,953.00
2023-04-25T00:31:30.094Z,930.00
2023-04-25T00:32:30.126Z,913.00
2023-04-25T00:33:30.152Z,931.00
2023-04-25T00:34:30.207Z,914.00
2023-04-25T00:35:30.244Z,885.00
2023-04-25T00:36:30.283Z,919.00
2023-04-25T00:37:30.351Z,939.00
2023-04-25T00:38:30.417Z,994.00
2023-04-25T00:39:30.494Z,1036.00
2023-04-25T00:40:30.538Z,1025.00
2023-04-25T00:41:30.606Z,1028.00
2023-04-25T00:42:30.631Z,1011.00
2023-04-25T00:43:30.679Z,1009.00
2023-04-25T00:44:30.770Z,995.00
2023-04-25T00:45:30.826Z,999.00
2023-04-25T00:46:30.951Z,993.00
2023-04-25T00:47:30.989Z,999.00
2023-04-25T00:48:30.989Z,991.00
2023-04-25T00:49:31.059Z,1011.00
2023-04-25T00:50:31.103Z,990.00
2023-04-25T00:51:31.155Z,1013.00
2023-04-25T00:52:31.199Z,1007.00
2023-04-25T00:53:31.253Z,1014.00
2023-04-25T00:54:31.290Z,1044.00
2023-04-25T00:55:31.309Z,1060.00
2023-04-25T00:56:31.334Z,1054.00
2023-04-25T00:57:31.408Z,1059.00
2023-04-25T00:58:31.405Z,1043.00
2023-04-25T00:59:31.451Z,1027.00
2023-04-25T01:00:31.533Z,1042.00
2023-04-25T01:01:31.475Z,1031.00
2023-04-25T01:02:31.620Z,1025.00
2023-04-25T01:03:31.615Z,1047.00
2023-04-25T01:04:31.645Z,1048.00
2023-04-25T01:05:31.655Z,1055.00
2023-04-25T01:06:31.692Z,1014.00
2023-04-25T01:07:31.702Z,1021.00
2023-04-25T01:08:31.729Z,1023.00
2023-04-25T01:09:31.733Z,1011.00
2023-04-25T01:10:31.703Z,1024.00
2023-04-25T01:11:33.671Z,1028.00
2023-04-25T01:12:31.764Z,1013.00
2023-04-25T01:13:31.809Z,1007.00
2023-04-25T01:14:31.799Z,1000.00
2023-04-25T01:15:31.817Z,1011.00
2023-04-25T01:16:31.893Z,1025.00
2023-04-25T01:17:31.924Z,1018.00
2023-04-25T01:18:31.887Z,1051.00
2023-04-25T01:19:31.959Z,1099.00
2023-04-25T01:20:31.963Z,1092.00
2023-04-25T01:21:32.020Z,1072.00
2023-04-25T01:22:32.004Z,1085.00
2023-04-25T01:23:32.026Z,1087.00
2023-04-25T01:24:32.062Z,1102.00
2023-04-25T01:25:32.106Z,1112.00
2023-04-25T01:26:32.162Z,1108.00
2023-04-25T01:27:32.159Z,1107.00
2023-04-25T01:28:32.116Z,1085.00
2023-04-25T01:29:32.213Z,1102.00
2023-04-25T01:30:32.172Z,1130.00
2023-04-25T01:31:32.177Z,1169.00
2023-04-25T01:32:32.198Z,1230.00
2023-04-25T01:33:32.192Z,1245.00
2023-04-25T01:34:32.160Z,1255.00
2023-04-25T01:35:32.158Z,1285.00
2023-04-25T01:36:32.188Z,1284.00
2023-04-25T01:37:32.163Z,1287.00
2023-04-25T01:38:32.145Z,1287.00
2023-04-25T01:39:32.150Z,1284.00
2023-04-25T01:40:32.121Z,1291.00
2023-04-25T01:41:32.119Z,1300.00
2023-04-25T01:42:32.128Z,1295.00
2023-04-25T01:43:32.100Z,1280.00
2023-04-25T01:44:32.120Z,1291.00
2023-04-25T01:45:32.137Z,1280.00
2023-04-25T01:46:32.249Z,1277.00
2023-04-25T01:47:33.146Z,1280.00
2023-04-25T01:48:32.110Z,1268.00
2023-04-25T01:49:32.078Z,1266.00
2023-04-25T01:50:32.084Z,1261.00
2023-04-25T01:51:32.074Z,1255.00
2023-04-25T01:52:32.103Z,1243.00
2023-04-25T01:53:32.077Z,1258.00
2023-04-25T01:54:32.078Z,1249.00
2023-04-25T01:55:32.076Z,1252.00
2023-04-25T01:56:32.084Z,1228.00
2023-04-25T01:57:32.073Z,1227.00
2023-04-25T01:58:32.098Z,1200.00
2023-04-25T01:59:32.046Z,1210.00
2023-04-25T02:00:32.043Z,1215.00
2023-04-25T02:01:32.180Z,1231.00
2023-04-25T02:02:32.198Z,1205.00
2023-04-25T02:03:32.196Z,1179.00
2023-04-25T02:04:32.094Z,1189.00
2023-04-25T02:05:32.050Z,1217.00
2023-04-25T02:06:32.062Z,1276.00
2023-04-25T02:07:32.062Z,1250.00
2023-04-25T02:08:32.041Z,1242.00
2023-04-25T02:09:32.075Z,1225.00
2023-04-25T02:10:32.034Z,1221.00
2023-04-25T02:11:32.037Z,1246.00
2023-04-25T02:12:32.053Z,1206.00
2023-04-25T02:13:32.068Z,1213.00
2023-04-25T02:14:32.067Z,1211.00
2023-04-25T02:15:32.070Z,1194.00
2023-04-25T02:16:32.306Z,1216.00
2023-04-25T02:17:32.043Z,1211.00
2023-04-25T02:18:32.051Z,1226.00
2023-04-25T02:19:32.032Z,1232.00
2023-04-25T02:20:32.058Z,1229.00
2023-04-25T02:21:32.022Z,1236.00
2023-04-25T02:22:32.064Z,1234.00
2023-04-25T02:23:32.041Z,1251.00
2023-04-25T02:24:32.044Z,1229.00
2023-04-25T02:25:32.070Z,1250.00
2023-04-25T02:26:32.052Z,1245.00
2023-04-25T02:27:32.037Z,1265.00
2023-04-25T02:28:32.065Z,1307.00
2023-04-25T02:29:32.083Z,1324.00
2023-04-25T02:30:32.084Z,1330.00
2023-04-25T02:31:32.241Z,1329.00
2023-04-25T02:32:32.105Z,1340.00
2023-04-25T02:33:32.093Z,1356.00
2023-04-25T02:34:32.101Z,1358.00
2023-04-25T02:35:32.081Z,1374.00
2023-04-25T02:36:32.121Z,1360.00
2023-04-25T02:37:32.118Z,1370.00
2023-04-25T02:38:32.118Z,1379.00
2023-04-25T02:39:32.137Z,1380.00
2023-04-25T02:40:32.128Z,1385.00
2023-04-25T02:41:32.168Z,1406.00
2023-04-25T02:42:32.168Z,1403.00
2023-04-25T02:43:32.154Z,1421.00
2023-04-25T02:44:32.160Z,1426.00
2023-04-25T02:45:32.187Z,1415.00
2023-04-25T02:46:39.148Z,1425.00
2023-04-25T02:47:33.213Z,1426.00
2023-04-25T02:48:32.164Z,1428.00
2023-04-25T02:49:32.156Z,1434.00
2023-04-25T02:50:32.112Z,1429.00
2023-04-25T02:51:32.182Z,1441.00
2023-04-25T02:52:32.094Z,1448.00
2023-04-25T02:53:32.100Z,1442.00
2023-04-25T02:54:32.132Z,1428.00
2023-04-25T02:55:32.088Z,1438.00
2023-04-25T02:56:32.102Z,1442.00
2023-04-25T02:57:32.107Z,1435.00
2023-04-25T02:58:32.093Z,1417.00
2023-04-25T02:59:32.080Z,1444.00
2023-04-25T03:00:32.079Z,1437.00
2023-04-25T03:01:32.053Z,1434.00
2023-04-25T03:02:32.094Z,1413.00
2023-04-25T03:03:32.172Z,1431.00
2023-04-25T03:04:32.077Z,1425.00
2023-04-25T03:05:32.047Z,1444.00
2023-04-25T03:06:32.004Z,1468.00
2023-04-25T03:07:32.051Z,1493.00
2023-04-25T03:08:32.012Z,1529.00
2023-04-25T03:09:32.010Z,1561.00
2023-04-25T03:10:32.009Z,1608.00
2023-04-25T03:11:31.980Z,1615.00
2023-04-25T03:12:31.988Z,1627.00
2023-04-25T03:13:31.981Z,1647.00
2023-04-25T03:14:32.003Z,1662.00
2023-04-25T03:15:31.953Z,1654.00
2023-04-25T03:16:32.083Z,1656.00
2023-04-25T03:17:31.964Z,1645.00
2023-04-25T03:18:31.927Z,1648.00
2023-04-25T03:19:31.947Z,1639.00
2023-04-25T03:20:31.932Z,1641.00
2023-04-25T03:21:31.924Z,1641.00
2023-04-25T03:22:31.943Z,1604.00
2023-04-25T03:23:31.924Z,1598.00
2023-04-25T03:24:31.988Z,1612.00
2023-04-25T03:25:31.979Z,1604.00
2023-04-25T03:26:31.987Z,1550.00
2023-04-25T03:27:32.016Z,1538.00
2023-04-25T03:28:32.010Z,1507.00
2023-04-25T03:29:32.021Z,1471.00
2023-04-25T03:30:32.051Z,1423.00
2023-04-25T03:31:32.190Z,1402.00
2023-04-25T03:32:32.061Z,1376.00
2023-04-25T03:33:32.075Z,1358.00
2023-04-25T03:34:32.078Z,1321.00
2023-04-25T03:35:32.087Z,1286.00
2023-04-25T03:36:32.121Z,1274.00
2023-04-25T03:37:32.143Z,1267.00
2023-04-25T03:38:32.118Z,1246.00
2023-04-25T03:39:32.138Z,1190.00
2023-04-25T03:40:32.171Z,1149.00
2023-04-25T03:41:32.157Z,1148.00
2023-04-25T03:42:32.196Z,1134.00
2023-04-25T03:43:32.220Z,1123.00
2023-04-25T03:44:32.231Z,1101.00
2023-04-25T03:45:32.263Z,1068.00
2023-04-25T03:46:32.317Z,1060.00
2023-04-25T03:47:32.240Z,1043.00
2023-04-25T03:48:32.285Z,1037.00
2023-04-25T03:49:32.275Z,1033.00
2023-04-25T03:50:32.264Z,1024.00
2023-04-25T03:51:32.294Z,1054.00
2023-04-25T03:52:32.306Z,1054.00
2023-04-25T03:53:32.321Z,1070.00
2023-04-25T03:54:32.340Z,1073.00
2023-04-25T03:55:32.324Z,1045.00
2023-04-25T03:56:32.344Z,1061.00
2023-04-25T03:57:32.396Z,1055.00
2023-04-25T03:58:32.392Z,1038.00
2023-04-25T03:59:32.418Z,1051.00
2023-04-25T04:00:32.381Z,1021.00
2023-04-25T04:01:32.412Z,993.00
2023-04-25T04:02:32.714Z,996.00
2023-04-25T04:03:32.661Z,1003.00
2023-04-25T04:04:32.644Z,985.00
2023-04-25T04:05:32.535Z,960.00
2023-04-25T04:06:32.505Z,951.00
2023-04-25T04:07:32.555Z,975.00
2023-04-25T04:08:32.541Z,1002.00
2023-04-25T04:09:32.582Z,1016.00
2023-04-25T04:10:32.573Z,1023.00
2023-04-25T04:11:32.600Z,1016.00
2023-04-25T04:12:32.632Z,1043.00
2023-04-25T04:13:32.640Z,1107.00
2023-04-25T04:14:32.721Z,1177.00
2023-04-25T04:15:32.714Z,1178.00
2023-04-25T04:16:34.428Z,1183.00
2023-04-25T04:17:32.595Z,1200.00
2023-04-25T04:18:32.575Z,1259.00
2023-04-25T04:19:32.608Z,1335.00
2023-04-25T04:20:32.592Z,1347.00
2023-04-25T04:21:32.596Z,1352.00
2023-04-25T04:22:32.580Z,1388.00
2023-04-25T04:23:32.550Z,1407.00
2023-04-25T04:24:32.559Z,1415.00
2023-04-25T04:25:32.533Z,1416.00
2023-04-25T04:26:32.517Z,1441.00
2023-04-25T04:27:32.585Z,1454.00
2023-04-25T04:28:32.554Z,1482.00
2023-04-25T04:29:32.509Z,1528.00
2023-04-25T04:30:32.506Z,1557.00
2023-04-25T04:31:32.560Z,1542.00
2023-04-25T04:32:32.504Z,1559.00
2023-04-25T04:33:32.495Z,1574.00
2023-04-25T04:34:32.502Z,1574.00
2023-04-25T04:35:32.495Z,1530.00
2023-04-25T04:36:32.503Z,1535.00
2023-04-25T04:37:32.529Z,1545.00
2023-04-25T04:38:32.551Z,1570.00
2023-04-25T04:39:32.545Z,1574.00
2023-04-25T04:40:32.601Z,1568.00
2023-04-25T04:41:32.606Z,1554.00
2023-04-25T04:42:32.621Z,1556.00
2023-04-25T04:43:32.635Z,1581.00
2023-04-25T04:44:32.694Z,1614.00
2023-04-25T04:45:32.660Z,1607.00
2023-04-25T04:46:32.716Z,1578.00
2023-04-25T04:47:32.710Z,1566.00
2023-04-25T04:48:32.713Z,1557.00
2023-04-25T04:49:32.719Z,1573.00
2023-04-25T04:50:32.723Z,1594.00
2023-04-25T04:51:32.770Z,1614.00
2023-04-25T04:52:32.799Z,1679.00
2023-04-25T04:53:32.775Z,1708.00
2023-04-25T04:54:32.804Z,1722.00
2023-04-25T04:55:32.816Z,1727.00
2023-04-25T04:56:32.827Z,1750.00
2023-04-25T04:57:32.838Z,1771.00
2023-04-25T04:58:32.865Z,1763.00
2023-04-25T04:59:32.878Z,1771.00
2023-04-25T05:00:32.954Z,1766.00
2023-04-25T05:01:32.869Z,1820.00
2023-04-25T05:02:32.985Z,1849.00
2023-04-25T05:03:33.097Z,1839.00
2023-04-25T05:04:32.994Z,1856.00
2023-04-25T05:05:32.977Z,1879.00
2023-04-25T05:06:32.968Z,1867.00
2023-04-25T05:07:32.945Z,1867.00
2023-04-25T05:08:32.972Z,1874.00
2023-04-25T05:09:32.974Z,1887.00
2023-04-25T05:10:33.028Z,1893.00
2023-04-25T05:11:33.051Z,1903.00
2023-04-25T05:12:34.034Z,1919.00
2023-04-25T05:13:33.046Z,1950.00
2023-04-25T05:14:33.088Z,1942.00
2023-04-25T05:15:33.721Z,1954.00
2023-04-25T05:16:33.206Z,1961.00
2023-04-25T05:17:33.172Z,1989.00
2023-04-25T05:18:33.138Z,2000.00
2023-04-25T05:19:33.117Z,2017.00
2023-04-25T05:20:33.181Z,2053.00
2023-04-25T05:21:33.175Z,2049.00
2023-04-25T05:22:33.210Z,2053.00
2023-04-25T05:23:33.539Z,2073.00
2023-04-25T05:24:33.214Z,2063.00
2023-04-25T05:25:33.219Z,2074.00
2023-04-25T05:26:33.250Z,2079.00
2023-04-25T05:27:33.253Z,2066.00
2023-04-25T05:28:33.264Z,2089.00
2023-04-25T05:29:33.277Z,2107.00
2023-04-25T05:30:33.304Z,2139.00
2023-04-25T05:31:33.324Z,2154.00
2023-04-25T05:32:33.332Z,2177.00
2023-04-25T05:33:33.292Z,2212.00
2023-04-25T05:34:33.300Z,2236.00
2023-04-25T05:35:33.732Z,2362.00
2023-04-25T05:36:33.317Z,2577.00
2023-04-25T05:37:33.307Z,2387.00
2023-04-25T05:38:34.828Z,2331.00
2023-04-25T05:39:33.347Z,2374.00
2023-04-25T05:40:33.688Z,2465.00
2023-04-25T05:41:33.443Z,2556.00
2023-04-25T05:42:33.529Z,2698.00
2023-04-25T05:43:33.563Z,2871.00
2023-04-25T05:44:33.600Z,2688.00
2023-04-25T05:45:33.676Z,2638.00
2023-04-25T05:46:33.705Z,2720.00
2023-04-25T05:47:33.669Z,2815.00
2023-04-25T05:48:33.641Z,2830.00
2023-04-25T05:49:33.780Z,2886.00
2023-04-25T05:50:33.688Z,2856.00
2023-04-25T05:51:33.709Z,2901.00
2023-04-25T05:52:33.739Z,2973.00
2023-04-25T05:53:33.713Z,3009.00
2023-04-25T05:54:33.728Z,3015.00
2023-04-25T05:55:33.758Z,3036.00
2023-04-25T05:56:33.758Z,3031.00
2023-04-25T05:57:33.802Z,3064.00
2023-04-25T05:58:33.802Z,3066.00
2023-04-25T05:59:33.876Z,3068.00
2023-04-25T06:00:33.912Z,3101.00
2023-04-25T06:01:33.953Z,3104.00
2023-04-25T06:02:34.094Z,3087.00
2023-04-25T06:03:34.262Z,3049.00
2023-04-25T06:04:34.528Z,3031.00
2023-04-25T06:05:34.292Z,3028.00
2023-04-25T06:06:34.206Z,3009.00
2023-04-25T06:07:34.265Z,2984.00
2023-04-25T06:08:34.360Z,2968.00
2023-04-25T06:09:34.352Z,2949.00
2023-04-25T06:10:34.470Z,2938.00
2023-04-25T06:11:34.485Z,2926.00
2023-04-25T06:12:34.572Z,2913.00
2023-04-25T06:13:34.588Z,2901.00
2023-04-25T06:14:34.645Z,2856.00
2023-04-25T06:15:34.769Z,2832.00
2023-04-25T06:16:34.858Z,2806.00
2023-04-25T06:17:34.879Z,2792.00
2023-04-25T06:18:34.888Z,2773.00
2023-04-25T06:19:35.010Z,2739.00
2023-04-25T06:20:35.069Z,2728.00
2023-04-25T06:21:35.079Z,2702.00
2023-04-25T06:22:35.172Z,2690.00
2023-04-25T06:23:35.210Z,2683.00
2023-04-25T06:24:35.215Z,2647.00
2023-04-25T06:25:35.285Z,2616.00
2023-04-25T06:26:35.356Z,2603.00
2023-04-25T06:27:35.400Z,2603.00
2023-04-25T06:28:35.510Z,2560.00
2023-04-25T06:29:35.555Z,2548.00
2023-04-25T06:30:35.594Z,2509.00
2023-04-25T06:31:35.703Z,2490.00
2023-04-25T06:32:35.751Z,2477.00
2023-04-25T06:33:35.758Z,2474.00
2023-04-25T06:34:35.827Z,2435.00
2023-04-25T06:35:35.893Z,2409.00
2023-04-25T06:36:35.939Z,2372.00
2023-04-25T06:37:36.014Z,2329.00
2023-04-25T06:38:36.074Z,2277.00
2023-04-25T06:39:38.148Z,2237.00
2023-04-25T06:40:36.142Z,2229.00
2023-04-25T06:41:36.219Z,2189.00
2023-04-25T06:42:36.089Z,2178.00
2023-04-25T06:43:36.079Z,2144.00
2023-04-25T06:44:36.098Z,2097.00
2023-04-25T06:45:36.083Z,2079.00
2023-04-25T06:46:36.134Z,2103.00
2023-04-25T06:47:36.096Z,2077.00
2023-04-25T06:48:36.037Z,2092.00
2023-04-25T06:49:36.045Z,2093.00
2023-04-25T06:50:36.231Z,2123.00
2023-04-25T06:51:36.022Z,2196.00
2023-04-25T06:52:36.011Z,2722.00
2023-04-25T06:53:35.995Z,2849.00
2023-04-25T06:54:36.009Z,2843.00
2023-04-25T06:55:36.016Z,3080.00
2023-04-25T06:56:36.007Z,3263.00
2023-04-25T06:57:35.994Z,3328.00
2023-04-25T06:58:35.980Z,3292.00
2023-04-25T06:59:35.978Z,3293.00
2023-04-25T07:00:36.000Z,3239.00
2023-04-25T07:01:35.958Z,3247.00
2023-04-25T07:02:36.106Z,3212.00
2023-04-25T07:03:36.098Z,3260.00
2023-04-25T07:04:36.084Z,3309.00
2023-04-25T07:05:35.961Z,3343.00
2023-04-25T07:06:35.992Z,3361.00
2023-04-25T07:07:35.950Z,3375.00
2023-04-25T07:08:35.902Z,3387.00
2023-04-25T07:09:35.912Z,3430.00
2023-04-25T07:10:35.907Z,3478.00
2023-04-25T07:11:35.890Z,3522.00
2023-04-25T07:12:35.915Z,3563.00
2023-04-25T07:13:35.882Z,3631.00
2023-04-25T07:14:35.875Z,3677.00
2023-04-25T07:15:35.880Z,3708.00
2023-04-25T07:16:35.883Z,3796.00
2023-04-25T07:17:35.944Z,3804.00
2023-04-25T07:18:35.852Z,3828.00
2023-04-25T07:19:35.909Z,3944.00
2023-04-25T07:20:35.835Z,3940.00
2023-04-25T07:21:35.850Z,3937.00
2023-04-25T07:22:35.837Z,4025.00
2023-04-25T07:23:35.802Z,3902.00
2023-04-25T07:24:35.831Z,3927.00
2023-04-25T07:25:35.836Z,3953.00
2023-04-25T07:26:35.814Z,4017.00
2023-04-25T07:27:35.796Z,4000.00
2023-04-25T07:28:35.812Z,4081.00
2023-04-25T07:29:35.801Z,4114.00
2023-04-25T07:30:35.798Z,4010.00
2023-04-25T07:31:35.819Z,3979.00
2023-04-25T07:32:35.821Z,4021.00
2023-04-25T07:33:35.770Z,4076.00
2023-04-25T07:34:35.752Z,4064.00
2023-04-25T07:35:35.733Z,4048.00
2023-04-25T07:36:35.753Z,4051.00
2023-04-25T07:37:35.724Z,4060.00
2023-04-25T07:38:35.738Z,4063.00
2023-04-25T07:39:35.699Z,4076.00
2023-04-25T07:40:35.752Z,4070.00
2023-04-25T07:41:35.709Z,4069.00
2023-04-25T07:42:35.694Z,4070.00
2023-04-25T07:43:35.705Z,4079.00
2023-04-25T07:44:35.671Z,4062.00
2023-04-25T07:45:35.766Z,4081.00
2023-04-25T07:46:35.700Z,4067.00
2023-04-25T07:47:35.652Z,4036.00
2023-04-25T07:48:35.668Z,4029.00
2023-04-25T07:49:35.651Z,3915.00
2023-04-25T07:50:35.650Z,3997.00
2023-04-25T07:51:35.631Z,4018.00
2023-04-25T07:52:35.625Z,4007.00
2023-04-25T07:53:35.615Z,4005.00
2023-04-25T07:54:35.614Z,3989.00
2023-04-25T07:55:35.599Z,3987.00
2023-04-25T07:56:49.153Z,3931.00
2023-04-25T07:57:36.596Z,3934.00
2023-04-25T07:58:35.620Z,3932.00
2023-04-25T07:59:35.575Z,3946.00
2023-04-25T08:00:35.575Z,3985.00
2023-04-25T08:01:35.567Z,4067.00
2023-04-25T08:02:35.623Z,4124.00
2023-04-25T08:03:35.743Z,4150.00
2023-04-25T08:04:35.642Z,4136.00
2023-04-25T08:05:35.685Z,4116.00
2023-04-25T08:06:35.870Z,4138.00
2023-04-25T08:07:35.509Z,4173.00
2023-04-25T08:08:35.523Z,4208.00
2023-04-25T08:09:35.546Z,4213.00
2023-04-25T08:10:35.581Z,4235.00
2023-04-25T08:11:35.606Z,4338.00
2023-04-25T08:12:35.694Z,4290.00
2023-04-25T08:13:35.735Z,4276.00
2023-04-25T08:14:35.757Z,4242.00
2023-04-25T08:15:35.820Z,4167.00
2023-04-25T08:16:35.842Z,4141.00
2023-04-25T08:17:35.991Z,4103.00
2023-04-25T08:18:35.874Z,4069.00
2023-04-25T08:19:35.829Z,4048.00
2023-04-25T08:20:35.855Z,3990.00
2023-04-25T08:21:35.838Z,3839.00
2023-04-25T08:22:35.864Z,3838.00
2023-04-25T08:23:35.817Z,3875.00
2023-04-25T08:24:37.961Z,3907.00
2023-04-25T08:25:35.852Z,3898.00
2023-04-25T08:26:35.822Z,3869.00
2023-04-25T08:27:35.820Z,3872.00
2023-04-25T08:28:35.812Z,3853.00
2023-04-25T08:29:35.834Z,3830.00
2023-04-25T08:30:35.784Z,3705.00
2023-04-25T08:31:35.898Z,3769.00
2023-04-25T08:32:35.818Z,3760.00
2023-04-25T08:33:35.769Z,3771.00
2023-04-25T08:34:35.960Z,3750.00
2023-04-25T08:35:35.772Z,3800.00
2023-04-25T08:36:39.851Z,3831.00
2023-04-25T08:37:35.764Z,3833.00
2023-04-25T08:38:35.760Z,3719.00
2023-04-25T08:39:35.748Z,3737.00
2023-04-25T08:40:35.734Z,3836.00
2023-04-25T08:41:35.745Z,3867.00
2023-04-25T08:42:35.728Z,3914.00
2023-04-25T08:43:35.720Z,3778.00
2023-04-25T08:44:35.699Z,3818.00
2023-04-25T08:45:35.704Z,3831.00
2023-04-25T08:46:35.710Z,3845.00
2023-04-25T08:47:35.770Z,3867.00
2023-04-25T08:48:35.748Z,3889.00
2023-04-25T08:49:35.679Z,3889.00
2023-04-25T08:50:35.678Z,3609.00
2023-04-25T08:51:35.731Z,3566.00
2023-04-25T08:52:35.646Z,3507.00
2023-04-25T08:53:36.381Z,3406.00
2023-04-25T08:54:37.237Z,3367.00
2023-04-25T08:55:35.629Z,3285.00
2023-04-25T08:56:35.632Z,3226.00
2023-04-25T08:57:35.598Z,3136.00
2023-04-25T08:58:35.614Z,3085.00
2023-04-25T08:59:37.304Z,3021.00
2023-04-25T09:00:35.589Z,3006.00
2023-04-25T09:01:35.601Z,2996.00
2023-04-25T09:02:35.756Z,3037.00
2023-04-25T09:03:35.800Z,3097.00
2023-04-25T09:04:35.533Z,3107.00
2023-04-25T09:05:35.648Z,3144.00
2023-04-25T09:06:35.731Z,3199.00
2023-04-25T09:07:35.519Z,3195.00
2023-04-25T09:08:35.513Z,3159.00
2023-04-25T09:09:35.523Z,3136.00
2023-04-25T09:10:35.517Z,3095.00
2023-04-25T09:11:35.521Z,3126.00
2023-04-25T09:12:35.498Z,3071.00
2023-04-25T09:13:35.502Z,2977.00
2023-04-25T09:14:35.500Z,2995.00
2023-04-25T09:15:35.494Z,3062.00
2023-04-25T09:16:37.678Z,3009.00
2023-04-25T09:17:35.538Z,3010.00
2023-04-25T09:18:35.449Z,2997.00
2023-04-25T09:20:40.432Z,3013.00
2023-04-25T09:21:36.564Z,3015.00
2023-04-25T09:22:35.471Z,3024.00
2023-04-25T09:23:35.434Z,3021.00
2023-04-25T09:24:35.461Z,2936.00
2023-04-25T09:25:35.417Z,2881.00
2023-04-25T09:26:35.437Z,2874.00
2023-04-25T09:27:35.445Z,2930.00
2023-04-25T09:28:35.448Z,2918.00
2023-04-25T09:29:35.397Z,2936.00
2023-04-25T09:30:35.408Z,2903.00
2023-04-25T09:31:35.790Z,2874.00
2023-04-25T09:32:35.425Z,2927.00
2023-04-25T09:33:35.370Z,2863.00
2023-04-25T09:34:35.326Z,2837.00
2023-04-25T09:35:35.405Z,2833.00
2023-04-25T09:36:35.745Z,2797.00
2023-04-25T09:37:35.332Z,2864.00
2023-04-25T09:38:35.327Z,2890.00
2023-04-25T09:39:35.318Z,2877.00
2023-04-25T09:40:35.382Z,2916.00
2023-04-25T09:41:35.762Z,2945.00
2023-04-25T09:42:36.258Z,2971.00
2023-04-25T09:43:35.329Z,3023.00
2023-04-25T09:44:35.272Z,3062.00
2023-04-25T09:45:35.279Z,3063.00
2023-04-25T09:46:35.400Z,2922.00
2023-04-25T09:47:35.361Z,2835.00
2023-04-25T09:48:35.259Z,2722.00
2023-04-25T09:49:35.262Z,2595.00
2023-04-25T09:50:35.284Z,2399.00
2023-04-25T09:51:35.757Z,2574.00
2023-04-25T09:52:35.358Z,2700.00
2023-04-25T09:53:35.369Z,2811.00
2023-04-25T09:54:35.386Z,2901.00
2023-04-25T09:55:35.427Z,2988.00
2023-04-25T09:56:35.392Z,3054.00
2023-04-25T09:57:35.447Z,3123.00
2023-04-25T09:58:35.392Z,3157.00
2023-04-25T09:59:35.415Z,3174.00
2023-04-25T10:00:35.390Z,3216.00
2023-04-25T10:01:35.498Z,3228.00
2023-04-25T10:02:35.517Z,3298.00
2023-04-25T10:03:35.664Z,3338.00
2023-04-25T10:04:35.470Z,3374.00
2023-04-25T10:05:35.423Z,3412.00
2023-04-25T10:06:35.416Z,3478.00
2023-04-25T10:07:35.453Z,3535.00
2023-04-25T10:08:35.429Z,3598.00
2023-04-25T10:09:35.460Z,3648.00
2023-04-25T10:10:35.409Z,3659.00
2023-04-25T10:11:35.454Z,3661.00
2023-04-25T10:12:35.465Z,3658.00
2023-04-25T10:13:35.545Z,3648.00
2023-04-25T10:14:35.516Z,3630.00
2023-04-25T10:15:37.440Z,3598.00
2023-04-25T10:16:35.531Z,3635.00
2023-04-25T10:17:35.665Z,3614.00
2023-04-25T10:18:35.555Z,3654.00
2023-04-25T10:19:35.494Z,3693.00
2023-04-25T10:20:35.481Z,3692.00
2023-04-25T10:21:35.510Z,3726.00
2023-04-25T10:22:35.485Z,3717.00
2023-04-25T10:23:35.650Z,3740.00
2023-04-25T10:24:35.489Z,3746.00
2023-04-25T10:25:35.491Z,3721.00
2023-04-25T10:26:35.421Z,3700.00
2023-04-25T10:27:35.624Z,3687.00
2023-04-25T10:28:35.519Z,3656.00
2023-04-25T10:29:35.420Z,3680.00
2023-04-25T10:30:35.463Z,3697.00
2023-04-25T10:31:35.546Z,3723.00
2023-04-25T10:32:35.399Z,3724.00
2023-04-25T10:33:35.467Z,3730.00
2023-04-25T10:34:35.382Z,3717.00
2023-04-25T10:35:35.373Z,3710.00
2023-04-25T10:36:35.365Z,3705.00
2023-04-25T10:37:35.876Z,3726.00
2023-04-25T10:38:35.358Z,3718.00
2023-04-25T10:39:35.351Z,3746.00
2023-04-25T10:40:35.362Z,3736.00
2023-04-25T10:41:35.382Z,3755.00
2023-04-25T10:42:35.804Z,3745.00
2023-04-25T10:43:35.365Z,3607.00
2023-04-25T10:44:35.332Z,3231.00
2023-04-25T10:45:35.306Z,3244.00
2023-04-25T10:46:35.341Z,3226.00
2023-04-25T10:47:35.336Z,3212.00
2023-04-25T10:48:35.399Z,3206.00
2023-04-25T10:49:35.442Z,3295.00
2023-04-25T10:50:35.517Z,3326.00
2023-04-25T10:51:51.667Z,3326.00
2023-04-25T10:52:36.548Z,3327.00
2023-04-25T10:53:35.558Z,3326.00
2023-04-25T10:54:35.515Z,3323.00
2023-04-25T10:55:35.604Z,3322.00
2023-04-25T10:56:35.544Z,3323.00
2023-04-25T10:57:35.545Z,3308.00
2023-04-25T10:58:35.576Z,3327.00
2023-04-25T10:59:35.549Z,3348.00
2023-04-25T11:00:53.198Z,3381.00
2023-04-25T11:01:36.649Z,3383.00
2023-04-25T11:02:35.662Z,3393.00
2023-04-25T11:03:35.627Z,3406.00
2023-04-25T11:04:35.804Z,3431.00
2023-04-25T11:05:43.967Z,3455.00
2023-04-25T11:06:36.437Z,3385.00
2023-04-25T11:07:35.818Z,3395.00
2023-04-25T11:08:35.430Z,3412.00
2023-04-25T11:09:35.442Z,3409.00
2023-04-25T11:10:35.398Z,3405.00
2023-04-25T11:11:35.372Z,3354.00
2023-04-25T11:12:35.404Z,3359.00
2023-04-25T11:13:35.362Z,3360.00
2023-04-25T11:14:35.363Z,3369.00
2023-04-25T11:15:35.385Z,3364.00
2023-04-25T11:16:35.397Z,3335.00
2023-04-25T11:17:35.454Z,3343.00
2023-04-25T11:18:35.348Z,3355.00
2023-04-25T11:19:35.332Z,3326.00
2023-04-25T11:20:35.363Z,3285.00
2023-04-25T11:21:35.331Z,3258.00
2023-04-25T11:22:35.307Z,3299.00
2023-04-25T11:23:35.306Z,3316.00
2023-04-25T11:24:35.342Z,3322.00
2023-04-25T11:25:35.561Z,3330.00
2023-04-25T11:26:35.420Z,3249.00
2023-04-25T11:27:35.813Z,3271.00
2023-04-25T11:28:35.460Z,3293.00
2023-04-25T11:29:35.509Z,3326.00
2023-04-25T11:30:35.533Z,3343.00
2023-04-25T11:31:35.599Z,3359.00
2023-04-25T11:32:35.941Z,3334.00
2023-04-25T11:33:35.630Z,3334.00
2023-04-25T11:34:35.676Z,3371.00
2023-04-25T11:35:35.755Z,3371.00
2023-04-25T11:36:35.769Z,3337.00
2023-04-25T11:37:35.890Z,3345.00
2023-04-25T11:38:35.943Z,3384.00
2023-04-25T11:39:35.936Z,3364.00
2023-04-25T11:40:35.949Z,3388.00
2023-04-25T11:41:36.003Z,3345.00
2023-04-25T11:42:36.078Z,3375.00
2023-04-25T11:43:36.111Z,3400.00
2023-04-25T11:44:36.185Z,3475.00
2023-04-25T11:45:36.351Z,3414.00
2023-04-25T11:46:36.344Z,3432.00
2023-04-25T11:47:36.376Z,3447.00
2023-04-25T11:48:36.340Z,3440.00
2023-04-25T11:49:36.444Z,3428.00
2023-04-25T11:50:36.466Z,3426.00
2023-04-25T11:51:36.497Z,3456.00
2023-04-25T11:52:36.557Z,3454.00
2023-04-25T11:53:36.591Z,3482.00
2023-04-25T11:54:36.682Z,3420.00
2023-04-25T11:55:36.694Z,3375.00
2023-04-25T11:56:36.754Z,3370.00
2023-04-25T11:57:36.789Z,3369.00
2023-04-25T11:58:37.046Z,3377.00
2023-04-25T11:59:36.928Z,3308.00
2023-04-25T12:00:36.960Z,3254.00
2023-04-25T12:01:36.974Z,3232.00
2023-04-25T12:02:37.375Z,3181.00
2023-04-25T12:03:37.260Z,3137.00
2023-04-25T12:04:37.451Z,3163.00
2023-04-25T12:05:37.313Z,3184.00
2023-04-25T12:06:37.220Z,3218.00
2023-04-25T12:07:37.261Z,3152.00
2023-04-25T12:08:37.341Z,3101.00